Time;durP1;ratioP1;P1;durP2;ratioP2;P2;SDS_P1;SDS_P2;PMS_P1;PMS_P2;Temp;Humidity;BMP_temperature;BMP_pressure;BME280_temperature;BME280_humidity;BME280_pressure;Samples;Min_cycle;Max_cycle;Signal;HPM_P1;HPM_P2
2023/09/18 00:00:45;;;;;;;7.57;6.88;;;21.50;99.90;;;;;;5085779;28;20217;-78
2023/09/18 00:03:12;;;;;;;7.47;6.80;;;21.50;99.90;;;;;;5088624;28;20246;-79
2023/09/18 00:05:39;;;;;;;7.85;7.15;;;21.50;99.90;;;;;;5091435;28;20189;-79
2023/09/18 00:08:06;;;;;;;7.53;6.82;;;21.50;99.90;;;;;;5085093;28;20644;-79
2023/09/18 00:10:35;;;;;;;8.50;7.80;;;21.50;99.90;;;;;;5087554;28;20198;-78
2023/09/18 00:13:02;;;;;;;7.90;7.18;;;21.40;99.90;;;;;;5086232;28;20246;-78
2023/09/18 00:15:29;;;;;;;8.25;7.55;;;21.40;99.90;;;;;;5086656;28;20197;-79
2023/09/18 00:17:56;;;;;;;7.45;6.85;;;21.40;99.90;;;;;;5082366;28;20259;-79
2023/09/18 00:20:26;;;;;;;7.10;6.50;;;21.40;99.90;;;;;;5086499;28;20271;-78
2023/09/18 00:22:54;;;;;;;9.02;7.97;;;21.30;99.90;;;;;;5087285;28;20197;-79
2023/09/18 00:25:21;;;;;;;7.95;7.25;;;21.30;99.90;;;;;;5089530;28;20217;-78
2023/09/18 00:27:51;;;;;;;8.98;8.18;;;21.30;99.90;;;;;;5089877;28;20259;-77
2023/09/18 00:30:18;;;;;;;9.32;8.43;;;21.20;99.90;;;;;;5089185;28;20193;-78
2023/09/18 00:32:46;;;;;;;10.90;9.82;;;21.10;99.90;;;;;;5090500;28;20198;-78
2023/09/18 00:35:13;;;;;;;10.27;9.35;;;21.00;99.90;;;;;;5089803;28;20213;-79
2023/09/18 00:37:40;;;;;;;8.55;7.80;;;20.90;99.90;;;;;;5088516;28;20193;-79
2023/09/18 00:40:08;;;;;;;8.90;8.07;;;20.90;99.90;;;;;;5084378;28;20252;-78
2023/09/18 00:42:36;;;;;;;8.88;8.07;;;20.90;99.90;;;;;;5085330;28;20198;-78
2023/09/18 00:45:04;;;;;;;7.85;7.18;;;21.00;99.90;;;;;;5084136;28;20303;-79
2023/09/18 00:47:32;;;;;;;7.68;7.07;;;20.90;99.90;;;;;;5080655;28;20182;-78
2023/09/18 00:49:59;;;;;;;7.88;7.18;;;20.90;99.90;;;;;;5085830;28;20664;-78
2023/09/18 00:52:27;;;;;;;7.88;7.18;;;20.90;99.90;;;;;;5087429;28;20197;-78
2023/09/18 00:54:55;;;;;;;7.88;7.20;;;20.90;99.90;;;;;;5085482;28;20221;-78
2023/09/18 00:57:22;;;;;;;7.68;7.00;;;20.90;99.90;;;;;;5083062;28;20198;-78
2023/09/18 00:59:49;;;;;;;8.32;7.60;;;20.90;99.90;;;;;;5081850;28;20680;-78
2023/09/18 01:02:20;;;;;;;8.27;7.47;;;20.90;99.90;;;;;;5085394;28;20202;-78
2023/09/18 01:04:49;;;;;;;7.68;7.07;;;21.00;99.90;;;;;;5082308;28;20245;-78
2023/09/18 01:07:16;;;;;;;8.30;7.60;;;21.00;99.90;;;;;;5086478;28;20259;-78
2023/09/18 01:09:43;;;;;;;7.72;7.13;;;20.90;99.90;;;;;;5086774;28;20254;-78
2023/09/18 01:12:19;;;;;;;9.70;8.80;;;20.90;99.90;;;;;;5088409;28;20214;-79
2023/09/18 01:18:33;;;;;;;10.45;9.55;;;20.80;99.90;;;;;;5084396;28;20205;-79
2023/09/18 01:23:55;;;;;;;10.77;9.77;;;20.40;99.90;;;;;;5087481;28;20225;-79
2023/09/18 01:26:22;;;;;;;9.43;8.30;;;20.40;99.90;;;;;;5089638;28;20197;-78
2023/09/18 01:28:49;;;;;;;10.65;9.10;;;20.40;99.90;;;;;;5089141;28;20193;-79
2023/09/18 01:31:17;;;;;;;8.77;8.00;;;20.40;99.90;;;;;;5082307;28;20663;-78
2023/09/18 01:33:47;;;;;;;9.00;8.30;;;20.40;99.90;;;;;;5080739;28;20214;-78
2023/09/18 01:36:16;;;;;;;8.93;8.23;;;20.40;99.90;;;;;;5085416;28;20259;-78
2023/09/18 01:38:44;;;;;;;9.07;8.38;;;20.40;99.90;;;;;;5088248;28;20237;-78
2023/09/18 01:41:12;;;;;;;10.10;9.18;;;20.50;99.90;;;;;;5098106;28;20742;-77
2023/09/18 01:43:39;;;;;;;8.70;7.90;;;20.50;99.90;;;;;;5091633;28;20248;-78
2023/09/18 01:46:06;;;;;;;8.85;8.05;;;20.50;99.90;;;;;;5091771;28;20202;-79
2023/09/18 01:48:33;;;;;;;8.73;7.85;;;20.50;99.90;;;;;;5090867;28;20280;-79
2023/09/18 01:51:00;;;;;;;8.88;8.07;;;20.50;99.90;;;;;;5089270;28;20191;-78
2023/09/18 01:53:27;;;;;;;9.18;8.38;;;20.60;99.90;;;;;;5091125;28;20275;-79
2023/09/18 01:55:54;;;;;;;9.15;8.38;;;20.60;99.90;;;;;;5087442;28;20203;-79
2023/09/18 01:58:22;;;;;;;8.65;7.90;;;20.60;99.90;;;;;;5087902;28;20227;-79
2023/09/18 02:00:49;;;;;;;9.15;8.35;;;20.60;99.90;;;;;;5081695;28;20229;-80
2023/09/18 02:03:18;;;;;;;7.93;7.13;;;20.60;99.90;;;;;;5088269;28;20201;-77
2023/09/18 02:05:45;;;;;;;8.00;7.30;;;20.60;99.90;;;;;;5091088;28;20289;-79
2023/09/18 02:08:12;;;;;;;7.90;7.20;;;20.60;99.90;;;;;;5086919;28;20674;-79
2023/09/18 02:10:38;;;;;;;8.55;7.82;;;20.60;99.90;;;;;;5088720;28;20201;-79
2023/09/18 02:13:05;;;;;;;7.63;7.03;;;20.60;99.90;;;;;;5090019;28;20227;-79
2023/09/18 02:15:35;;;;;;;8.32;7.63;;;20.60;99.90;;;;;;5084314;28;20244;-78
2023/09/18 02:18:02;;;;;;;9.82;8.90;;;20.60;99.90;;;;;;5093300;28;20198;-79
2023/09/18 02:20:30;;;;;;;10.00;9.10;;;20.60;99.90;;;;;;5088408;28;20763;-79
2023/09/18 02:22:57;;;;;;;8.13;7.43;;;20.60;99.90;;;;;;5091892;28;20251;-79
2023/09/18 02:25:25;;;;;;;8.93;8.23;;;20.60;99.90;;;;;;5089817;28;20213;-79
2023/09/18 02:27:51;;;;;;;7.78;7.18;;;20.60;99.90;;;;;;5090604;28;21573;-79
2023/09/18 02:30:19;;;;;;;8.38;7.68;;;20.60;99.90;;;;;;5088431;28;20820;-78
2023/09/18 02:32:47;;;;;;;8.43;7.65;;;20.70;99.90;;;;;;5087442;28;20208;-79
2023/09/18 02:35:14;;;;;;;8.43;7.72;;;20.70;99.90;;;;;;5086892;28;20222;-79
2023/09/18 02:37:41;;;;;;;8.23;7.53;;;20.70;99.90;;;;;;5090569;28;20244;-79
2023/09/18 02:40:09;;;;;;;8.00;7.28;;;20.70;99.90;;;;;;5094124;28;20278;-78
2023/09/18 02:42:36;;;;;;;7.55;6.95;;;20.60;99.90;;;;;;5096904;28;20224;-79
2023/09/18 02:45:04;;;;;;;8.25;7.45;;;20.60;99.90;;;;;;5086018;28;20771;-78
2023/09/18 02:47:30;;;;;;;10.30;9.30;;;20.60;99.90;;;;;;5092092;28;20251;-78
2023/09/18 02:49:59;;;;;;;8.27;7.57;;;20.60;99.90;;;;;;5084506;28;20198;-78
2023/09/18 02:52:26;;;;;;;7.60;7.00;;;20.50;99.90;;;;;;5087664;28;20664;-78
2023/09/18 02:54:53;;;;;;;7.95;7.25;;;20.50;99.90;;;;;;5092281;28;20264;-78
2023/09/18 02:57:20;;;;;;;7.43;6.82;;;20.60;99.90;;;;;;5090285;28;20201;-77
2023/09/18 02:59:47;;;;;;;7.50;6.80;;;20.60;99.90;;;;;;5091813;28;20194;-78
2023/09/18 03:02:14;;;;;;;7.10;6.50;;;20.50;99.90;;;;;;5093103;28;20240;-79
2023/09/18 03:04:41;;;;;;;7.28;6.57;;;20.50;99.90;;;;;;5080141;28;20229;-79
2023/09/18 03:07:09;;;;;;;6.60;6.00;;;20.60;99.90;;;;;;5085112;28;20549;-79
2023/09/18 03:09:36;;;;;;;7.47;6.80;;;20.60;99.90;;;;;;5088971;28;20210;-77
2023/09/18 03:12:04;;;;;;;7.28;6.57;;;20.60;99.90;;;;;;5088250;28;20941;-77
2023/09/18 03:14:30;;;;;;;7.75;6.68;;;20.70;99.90;;;;;;5087183;28;20342;-79
2023/09/18 03:16:57;;;;;;;8.13;7.40;;;20.70;99.90;;;;;;5090204;28;20248;-78
2023/09/18 03:19:26;;;;;;;6.78;6.22;;;20.80;99.90;;;;;;5092568;28;20193;-79
2023/09/18 03:21:53;;;;;;;6.90;6.30;;;20.90;99.90;;;;;;5087311;28;20213;-80
2023/09/18 03:24:22;;;;;;;8.27;7.55;;;20.90;99.90;;;;;;5083933;28;20748;-78
2023/09/18 03:26:49;;;;;;;9.82;8.38;;;20.90;99.90;;;;;;5083929;28;20251;-77
2023/09/18 03:29:16;;;;;;;11.43;10.35;;;20.80;99.90;;;;;;5086480;28;20240;-79
2023/09/18 03:31:45;;;;;;;10.07;9.07;;;20.70;99.90;;;;;;5085000;28;20202;-77
2023/09/18 03:37:18;;;;;;;7.93;7.22;;;20.70;99.90;;;;;;5089486;28;20212;-77
2023/09/18 03:40:37;;;;;;;8.30;7.60;;;20.70;99.90;;;;;;5089505;28;20190;-79
2023/09/18 03:49:00;;;;;;;7.80;7.10;;;20.60;99.90;;;;;;5087892;28;21587;-79
2023/09/18 03:51:27;;;;;;;7.38;6.72;;;20.60;99.90;;;;;;5087482;28;20614;-79
2023/09/18 03:53:53;;;;;;;7.85;7.20;;;20.60;99.90;;;;;;5088266;28;20298;-80
2023/09/18 03:56:22;;;;;;;7.72;7.10;;;20.60;99.90;;;;;;5091661;28;20250;-79
2023/09/18 03:58:51;;;;;;;8.05;7.35;;;20.50;99.90;;;;;;5092245;28;20288;-79
2023/09/18 04:01:18;;;;;;;7.72;7.00;;;20.50;99.90;;;;;;5083286;28;20303;-79
2023/09/18 04:03:45;;;;;;;7.40;6.80;;;20.50;99.90;;;;;;5086455;28;20214;-78
2023/09/18 04:06:12;;;;;;;7.70;7.00;;;20.50;99.90;;;;;;5084979;28;20249;-80
2023/09/18 04:08:39;;;;;;;7.53;6.82;;;20.50;99.90;;;;;;5084356;28;20227;-79
2023/09/18 04:11:09;;;;;;;6.95;6.35;;;20.50;99.90;;;;;;5091570;28;20725;-79
2023/09/18 04:13:37;;;;;;;6.70;6.15;;;20.50;99.90;;;;;;5090627;28;20225;-79
2023/09/18 04:16:05;;;;;;;8.55;7.43;;;20.50;99.90;;;;;;5089536;28;20198;-79
2023/09/18 04:18:32;;;;;;;7.38;6.78;;;20.50;99.90;;;;;;5091693;28;20244;-78
2023/09/18 04:20:59;;;;;;;7.75;7.07;;;20.50;99.90;;;;;;5085442;28;20217;-79
2023/09/18 04:23:27;;;;;;;7.63;6.93;;;20.50;99.90;;;;;;5086748;28;20286;-79
2023/09/18 04:25:58;;;;;;;7.50;6.80;;;20.50;99.90;;;;;;5086260;28;20232;-79
2023/09/18 04:28:24;;;;;;;6.80;6.30;;;20.50;99.90;;;;;;5079535;28;20212;-79
2023/09/18 04:30:53;;;;;;;7.22;6.63;;;20.50;99.90;;;;;;5089102;28;20250;-79
2023/09/18 04:33:21;;;;;;;8.40;7.70;;;20.50;99.90;;;;;;5087954;28;20246;-79
2023/09/18 04:35:48;;;;;;;8.93;8.02;;;20.50;99.90;;;;;;5089291;28;20253;-80
2023/09/18 04:38:16;;;;;;;8.20;7.53;;;20.40;99.90;;;;;;5082866;28;20205;-79
2023/09/18 04:40:43;;;;;;;9.10;8.10;;;20.40;99.90;;;;;;5085706;28;20266;-79
2023/09/18 04:43:10;;;;;;;11.13;10.10;;;20.20;99.90;;;;;;5083376;28;20197;-81
2023/09/18 04:45:37;;;;;;;10.20;9.35;;;20.00;99.90;;;;;;5084771;28;20210;-79
2023/09/18 04:48:08;;;;;;;9.38;8.57;;;19.90;99.90;;;;;;5085328;28;20656;-79
2023/09/18 04:50:35;;;;;;;7.82;7.22;;;19.90;99.90;;;;;;5086601;28;20222;-79
2023/09/18 04:53:03;;;;;;;8.50;7.80;;;20.00;99.90;;;;;;5085682;28;20197;-79
2023/09/18 04:55:31;;;;;;;8.27;7.57;;;20.00;99.90;;;;;;5085199;28;20667;-79
2023/09/18 04:57:59;;;;;;;8.77;8.07;;;20.00;99.90;;;;;;5084082;28;20254;-79
2023/09/18 05:00:27;;;;;;;8.45;7.75;;;20.00;99.90;;;;;;5086155;28;20205;-78
2023/09/18 05:02:54;;;;;;;9.23;8.38;;;20.10;99.90;;;;;;5085184;28;20244;-79
2023/09/18 05:05:23;;;;;;;8.45;7.75;;;20.10;99.90;;;;;;5090266;28;20270;-77
2023/09/18 05:07:50;;;;;;;8.25;7.65;;;20.10;99.90;;;;;;5084929;28;20206;-78
2023/09/18 05:10:17;;;;;;;8.27;7.57;;;20.10;99.90;;;;;;5083433;28;20284;-78
2023/09/18 05:12:50;;;;;;;8.25;7.55;;;20.10;99.90;;;;;;5081353;28;20198;-78
2023/09/18 05:15:43;;;;;;;7.70;7.00;;;20.20;99.90;;;;;;5040957;28;20226;-73
2023/09/18 05:18:10;;;;;;;9.68;7.90;;;20.20;99.90;;;;;;5038630;28;20198;-71
2023/09/18 05:20:39;;;;;;;11.25;10.15;;;20.20;99.90;;;;;;5041076;28;20238;-71
2023/09/18 05:23:06;;;;;;;12.80;11.70;;;20.10;99.90;;;;;;5029140;28;20961;-71
2023/09/18 05:25:37;;;;;;;12.13;10.95;;;19.80;99.90;;;;;;5038208;28;20316;-69
2023/09/18 05:28:05;;;;;;;10.45;9.65;;;19.70;99.90;;;;;;5044476;28;20207;-70
2023/09/18 05:30:34;;;;;;;10.57;9.68;;;19.60;99.90;;;;;;5039323;28;20195;-70
2023/09/18 05:33:04;;;;;;;8.93;8.18;;;19.60;99.90;;;;;;5040558;28;20222;-70
2023/09/18 05:35:31;;;;;;;9.57;8.68;;;19.60;99.90;;;;;;5043291;28;20218;-74
2023/09/18 05:38:00;;;;;;;8.65;7.95;;;19.70;99.90;;;;;;5042343;28;20195;-71
2023/09/18 05:40:27;;;;;;;9.75;8.95;;;19.90;99.90;;;;;;5043892;28;20800;-71
2023/09/18 05:42:56;;;;;;;9.18;8.38;;;20.00;99.90;;;;;;5019668;28;20214;-70
2023/09/18 05:45:23;;;;;;;10.15;9.05;;;20.20;99.90;;;;;;5036847;28;20621;-71
2023/09/18 05:47:53;;;;;;;9.68;8.73;;;20.30;99.90;;;;;;5035065;28;20230;-71
2023/09/18 05:50:20;;;;;;;11.70;10.60;;;20.40;99.90;;;;;;5035053;28;20215;-71
2023/09/18 05:52:48;;;;;;;10.27;9.38;;;20.50;99.90;;;;;;5032691;28;20219;-73
2023/09/18 05:55:17;;;;;;;10.55;9.65;;;20.60;99.90;;;;;;5036285;28;20661;-72
2023/09/18 05:57:44;;;;;;;10.43;8.93;;;20.70;99.90;;;;;;5034628;28;20758;-74
2023/09/18 06:00:14;;;;;;;10.13;9.07;;;20.80;99.90;;;;;;5036556;28;20312;-73
2023/09/18 06:02:41;;;;;;;12.07;10.98;;;21.00;99.90;;;;;;5035993;28;20957;-70
2023/09/18 06:05:11;;;;;;;12.85;11.75;;;20.90;99.90;;;;;;5031671;28;20292;-74
2023/09/18 06:07:38;;;;;;;12.38;11.38;;;20.70;99.90;;;;;;5018991;28;20314;-72
2023/09/18 06:10:06;;;;;;;12.98;11.85;;;20.60;99.90;;;;;;5004083;28;20196;-71
2023/09/18 06:12:34;;;;;;;11.40;10.40;;;20.40;99.90;;;;;;5036634;28;20227;-71
2023/09/18 06:15:01;;;;;;;10.82;9.95;;;20.30;99.90;;;;;;5033683;28;20789;-70
2023/09/18 06:17:28;;;;;;;9.88;9.05;;;20.10;99.90;;;;;;5033862;28;20199;-70
2023/09/18 06:19:55;;;;;;;10.10;9.10;;;20.20;99.90;;;;;;5033284;28;20231;-72
2023/09/18 06:22:22;;;;;;;9.32;8.48;;;20.10;99.90;;;;;;5034569;28;20679;-71
2023/09/18 06:24:49;;;;;;;10.10;9.10;;;20.00;99.90;;;;;;5035823;28;20286;-74
2023/09/18 06:27:18;;;;;;;9.15;8.45;;;20.10;99.90;;;;;;5035155;28;20229;-71
2023/09/18 06:29:47;;;;;;;8.55;7.85;;;20.10;99.90;;;;;;5018776;28;20195;-71
2023/09/18 06:32:14;;;;;;;8.00;7.30;;;20.20;99.90;;;;;;5037146;28;20210;-70
2023/09/18 06:34:43;;;;;;;7.90;7.20;;;20.20;99.90;;;;;;5035042;28;20903;-71
2023/09/18 06:37:12;;;;;;;8.38;7.57;;;20.20;99.90;;;;;;5037557;28;20284;-70
2023/09/18 06:39:39;;;;;;;8.90;8.10;;;20.20;99.90;;;;;;5034799;28;20318;-71
2023/09/18 06:42:06;;;;;;;8.55;7.88;;;20.30;99.90;;;;;;5036243;28;20222;-71
2023/09/18 06:44:33;;;;;;;8.95;8.25;;;20.30;99.90;;;;;;5038050;28;20227;-72
2023/09/18 06:47:02;;;;;;;8.32;7.53;;;20.50;99.90;;;;;;5037625;28;20223;-71
2023/09/18 06:49:30;;;;;;;8.23;7.63;;;20.70;99.90;;;;;;5038364;28;20364;-71
2023/09/18 06:51:58;;;;;;;8.68;7.88;;;20.90;99.90;;;;;;5036144;28;20679;-72
2023/09/18 06:54:25;;;;;;;10.25;9.30;;;21.00;99.90;;;;;;5033408;28;20222;-71
2023/09/18 06:56:52;;;;;;;10.02;9.23;;;21.10;99.90;;;;;;5035742;28;20242;-72
2023/09/18 06:59:19;;;;;;;10.52;9.63;;;21.40;99.90;;;;;;5040177;28;20297;-74
2023/09/18 07:01:46;;;;;;;12.30;10.10;;;21.40;99.90;;;;;;5051547;28;20257;-73
2023/09/18 07:04:14;;;;;;;11.35;10.30;;;21.40;99.90;;;;;;5047891;28;20188;-71
2023/09/18 07:06:41;;;;;;;9.43;8.63;;;21.10;99.90;;;;;;5040171;28;20747;-71
2023/09/18 07:09:11;;;;;;;8.88;7.93;;;20.90;99.90;;;;;;5036804;28;20301;-72
2023/09/18 07:11:39;;;;;;;10.23;9.32;;;20.80;99.90;;;;;;5036096;28;20203;-71
2023/09/18 07:14:06;;;;;;;9.43;8.52;;;20.70;99.90;;;;;;5035668;28;20204;-73
2023/09/18 07:16:33;;;;;;;10.57;9.20;;;20.70;99.90;;;;;;5021198;28;20218;-73
2023/09/18 07:19:01;;;;;;;8.80;8.07;;;20.60;99.90;;;;;;5033093;28;20475;-74
2023/09/18 07:21:29;;;;;;;9.02;8.18;;;20.60;99.90;;;;;;5034968;28;20237;-71
2023/09/18 07:23:56;;;;;;;8.52;7.82;;;20.60;99.90;;;;;;5035443;28;20211;-72
2023/09/18 07:26:23;;;;;;;9.95;8.98;;;20.50;99.90;;;;;;5033690;28;21029;-71
2023/09/18 07:28:50;;;;;;;9.73;8.93;;;20.40;99.90;;;;;;5034344;28;20257;-73
2023/09/18 07:31:17;;;;;;;8.82;8.05;;;20.30;99.90;;;;;;5018732;28;20217;-73
2023/09/18 07:33:44;;;;;;;7.38;6.72;;;20.50;99.90;;;;;;5034046;28;20249;-71
2023/09/18 07:36:11;;;;;;;8.52;7.72;;;20.60;99.90;;;;;;5033058;28;20250;-72
2023/09/18 07:38:43;;;;;;;8.35;7.65;;;20.80;99.90;;;;;;5035886;28;20206;-73
2023/09/18 07:41:15;;;;;;;8.75;8.05;;;20.90;99.90;;;;;;5038747;28;20202;-73
2023/09/18 07:43:42;;;;;;;8.50;7.70;;;21.00;99.90;;;;;;5032545;28;20199;-72
2023/09/18 07:46:09;;;;;;;8.00;7.30;;;20.90;99.90;;;;;;5031158;28;20383;-72
2023/09/18 07:48:37;;;;;;;9.15;8.45;;;20.90;99.90;;;;;;5034076;28;20370;-73
2023/09/18 07:51:04;;;;;;;10.93;9.43;;;20.80;99.90;;;;;;5035873;28;20284;-73
2023/09/18 07:53:32;;;;;;;11.65;10.60;;;20.70;99.90;;;;;;5034108;28;20207;-73
2023/09/18 07:56:01;;;;;;;8.82;8.05;;;20.60;99.90;;;;;;5034384;28;20220;-72
2023/09/18 07:58:28;;;;;;;9.90;8.98;;;20.50;99.90;;;;;;5030756;28;20203;-73
2023/09/18 08:00:57;;;;;;;7.72;7.13;;;20.40;99.90;;;;;;5034755;28;20696;-71
2023/09/18 08:03:28;;;;;;;9.02;8.07;;;20.40;99.90;;;;;;5020175;28;20226;-70
2023/09/18 08:05:55;;;;;;;7.78;7.15;;;20.40;99.90;;;;;;5030540;28;20219;-71
2023/09/18 08:08:23;;;;;;;9.15;8.35;;;20.50;99.90;;;;;;5035559;28;20203;-72
2023/09/18 08:10:50;;;;;;;8.80;8.10;;;20.50;99.90;;;;;;5035400;28;20236;-70
2023/09/18 08:13:19;;;;;;;7.82;7.13;;;20.40;99.90;;;;;;5019959;28;20209;-70
2023/09/18 08:15:47;;;;;;;7.38;6.78;;;20.40;99.90;;;;;;5038307;28;20219;-70
2023/09/18 08:18:14;;;;;;;7.00;6.30;;;20.50;99.90;;;;;;5036823;28;20195;-72
2023/09/18 08:20:42;;;;;;;7.05;6.45;;;20.70;99.90;;;;;;5032957;28;20202;-71
2023/09/18 08:23:10;;;;;;;9.05;8.25;;;20.80;99.90;;;;;;5037122;28;20306;-71
2023/09/18 08:25:37;;;;;;;8.77;7.97;;;20.90;99.90;;;;;;5034956;28;20282;-71
2023/09/18 08:28:06;;;;;;;8.77;7.90;;;20.90;99.90;;;;;;5034483;28;20208;-70
2023/09/18 08:30:36;;;;;;;9.32;8.52;;;20.90;99.90;;;;;;5032698;28;20206;-70
2023/09/18 08:33:04;;;;;;;8.60;7.78;;;20.90;99.90;;;;;;5032274;28;20231;-70
2023/09/18 08:35:32;;;;;;;8.30;7.60;;;20.90;99.90;;;;;;5036034;28;20774;-71
2023/09/18 08:37:59;;;;;;;7.20;6.53;;;21.20;99.90;;;;;;5035114;28;20203;-71
2023/09/18 08:40:26;;;;;;;7.70;7.00;;;21.70;99.90;;;;;;5015934;28;20210;-71
2023/09/18 08:42:56;;;;;;;9.82;7.00;;;22.20;99.90;;;;;;5033654;28;20262;-71
2023/09/18 08:45:29;;;;;;;7.97;7.22;;;22.60;99.90;;;;;;5036201;28;20925;-70
2023/09/18 08:47:58;;;;;;;7.78;7.05;;;22.70;99.90;;;;;;5017001;28;20960;-71
2023/09/18 08:50:26;;;;;;;9.95;8.93;;;22.50;99.90;;;;;;5034226;28;20216;-73
2023/09/18 08:52:53;;;;;;;10.48;7.78;;;22.40;99.90;;;;;;5032947;28;20745;-71
2023/09/18 08:55:22;;;;;;;8.45;7.75;;;22.20;99.90;;;;;;5013318;28;20255;-71
2023/09/18 08:57:52;;;;;;;11.45;8.45;;;22.10;99.90;;;;;;5017991;28;20866;-72
2023/09/18 09:00:19;;;;;;;8.13;7.15;;;22.10;99.90;;;;;;5030120;28;20727;-73
2023/09/18 09:02:48;;;;;;;7.75;6.82;;;22.00;99.90;;;;;;5033796;28;20215;-71
2023/09/18 09:05:17;;;;;;;7.30;6.72;;;22.00;99.90;;;;;;5028543;28;20238;-72
2023/09/18 09:07:44;;;;;;;8.55;7.85;;;22.00;99.90;;;;;;5032646;28;20191;-72
2023/09/18 09:10:11;;;;;;;8.95;8.13;;;22.50;99.90;;;;;;5019250;28;20199;-73
2023/09/18 09:12:49;;;;;;;9.32;8.48;;;22.70;99.90;;;;;;5021262;28;20195;-73
2023/09/18 09:15:17;;;;;;;11.27;10.00;;;22.90;99.90;;;;;;5030876;28;20230;-74
2023/09/18 09:17:45;;;;;;;12.35;11.05;;;23.10;99.90;;;;;;5032629;28;20268;-71
2023/09/18 09:20:13;;;;;;;10.57;9.63;;;23.20;99.90;;;;;;5031573;28;20306;-74
2023/09/18 09:22:42;;;;;;;11.05;8.82;;;23.40;99.90;;;;;;5035899;28;20645;-73
2023/09/18 09:25:24;;;;;;;11.27;9.43;;;23.60;99.90;;;;;;5032698;28;20669;-73
2023/09/18 09:27:51;;;;;;;10.68;8.52;;;24.00;99.90;;;;;;5033112;28;20612;-73
2023/09/18 09:30:23;;;;;;;9.15;8.30;;;24.30;99.90;;;;;;5036905;28;20230;-73
2023/09/18 09:32:51;;;;;;;10.40;7.43;;;24.40;99.90;;;;;;5032646;28;20204;-71
2023/09/18 09:35:27;;;;;;;9.20;8.30;;;24.50;99.90;;;;;;5033968;28;20230;-71
2023/09/18 09:37:58;;;;;;;8.32;7.63;;;24.50;99.90;;;;;;5029120;28;20201;-72
2023/09/18 09:40:26;;;;;;;9.70;8.70;;;24.10;99.90;;;;;;5033412;28;20204;-72
2023/09/18 09:43:00;;;;;;;7.72;7.00;;;23.60;99.90;;;;;;5037461;28;20292;-72
2023/09/18 09:45:29;;;;;;;7.88;7.18;;;23.50;99.90;;;;;;5034282;28;20222;-72
2023/09/18 09:47:57;;;;;;;7.00;6.40;;;23.90;99.90;;;;;;5033368;28;20945;-72
2023/09/18 09:50:25;;;;;;;7.57;6.88;;;24.40;99.90;;;;;;5033627;28;20196;-72
2023/09/18 09:52:56;;;;;;;8.90;8.02;;;24.40;99.90;;;;;;5014864;28;20208;-71
2023/09/18 09:55:25;;;;;;;9.07;8.18;;;24.00;99.90;;;;;;5031144;28;20226;-73
2023/09/18 09:57:57;;;;;;;12.77;8.77;;;23.70;99.90;;;;;;5031733;28;20737;-72
2023/09/18 10:00:30;;;;;;;8.77;7.97;;;23.30;99.90;;;;;;5037690;28;20202;-71
2023/09/18 10:03:02;;;;;;;10.07;9.07;;;23.00;99.90;;;;;;5032275;28;20301;-72
2023/09/18 10:05:32;;;;;;;8.52;7.60;;;22.80;99.90;;;;;;5035289;28;20231;-73
2023/09/18 10:08:04;;;;;;;7.72;6.93;;;22.70;99.90;;;;;;5036183;28;20215;-73
2023/09/18 10:10:34;;;;;;;7.88;7.18;;;22.50;99.90;;;;;;5037479;28;20954;-72
2023/09/18 10:13:09;;;;;;;7.97;7.32;;;22.50;99.90;;;;;;5035376;28;21518;-73
2023/09/18 10:15:38;;;;;;;7.53;6.82;;;22.50;99.90;;;;;;5033970;28;20238;-73
2023/09/18 10:18:10;;;;;;;7.47;6.88;;;22.60;99.90;;;;;;5022452;28;20804;-73
2023/09/18 10:20:43;;;;;;;7.95;7.25;;;22.80;99.90;;;;;;5037654;28;20214;-73
2023/09/18 10:23:24;;;;;;;7.55;6.80;;;23.00;99.90;;;;;;5037488;28;20306;-73
2023/09/18 10:25:56;;;;;;;8.38;7.53;;;23.10;99.90;;;;;;5036319;28;20301;-71
2023/09/18 10:28:26;;;;;;;6.95;6.35;;;22.90;99.90;;;;;;5036260;28;20207;-72
2023/09/18 10:30:54;;;;;;;8.70;7.90;;;22.70;99.90;;;;;;5021691;28;20207;-72
2023/09/18 10:33:22;;;;;;;9.60;8.80;;;22.50;99.90;;;;;;5037128;28;20226;-72
2023/09/18 10:35:49;;;;;;;9.45;8.60;;;22.30;99.90;;;;;;5039090;28;20249;-72
2023/09/18 10:38:19;;;;;;;9.45;8.65;;;22.20;99.90;;;;;;5036023;28;20208;-69
2023/09/18 10:40:48;;;;;;;8.90;8.00;;;22.20;99.90;;;;;;5018752;28;20200;-73
2023/09/18 10:43:17;;;;;;;10.25;9.30;;;22.20;99.90;;;;;;5037324;28;20308;-70
2023/09/18 10:45:45;;;;;;;8.48;7.60;;;22.20;99.90;;;;;;5038935;28;20868;-74
2023/09/18 10:48:13;;;;;;;7.72;7.05;;;22.30;99.90;;;;;;5034996;28;20694;-73
2023/09/18 10:50:43;;;;;;;8.63;7.80;;;22.50;99.90;;;;;;5032243;28;20955;-71
2023/09/18 10:53:10;;;;;;;8.20;7.40;;;22.40;99.90;;;;;;5040564;28;20199;-75
2023/09/18 10:55:39;;;;;;;8.23;7.43;;;22.40;99.90;;;;;;5037359;28;20219;-75
2023/09/18 10:58:06;;;;;;;7.65;6.90;;;22.30;99.90;;;;;;5036611;28;20206;-71
2023/09/18 11:00:36;;;;;;;7.65;6.85;;;22.20;99.90;;;;;;5034120;28;20210;-71
2023/09/18 11:03:17;;;;;;;8.50;7.57;;;22.20;99.90;;;;;;5034637;28;20210;-70
2023/09/18 11:05:46;;;;;;;8.05;7.28;;;22.00;99.90;;;;;;5035345;28;20218;-71
2023/09/18 11:08:31;;;;;;;7.47;6.78;;;21.90;99.90;;;;;;5033303;28;20210;-70
2023/09/18 11:11:14;;;;;;;6.90;6.20;;;22.00;99.90;;;;;;5032219;28;20203;-70
2023/09/18 11:13:43;;;;;;;6.35;5.85;;;22.20;99.90;;;;;;5035272;28;20195;-71
2023/09/18 11:16:37;;;;;;;5.32;4.90;;;22.30;99.90;;;;;;5033080;28;20219;-70
2023/09/18 11:19:11;;;;;;;6.03;5.53;;;22.40;99.90;;;;;;5035598;28;20233;-70
2023/09/18 11:21:39;;;;;;;6.20;5.68;;;22.50;99.90;;;;;;5034337;28;20286;-71
2023/09/18 11:24:11;;;;;;;5.78;4.90;;;22.50;99.90;;;;;;5036783;28;20285;-70
2023/09/18 11:26:42;;;;;;;5.90;5.28;;;22.60;99.90;;;;;;5036251;28;20310;-71
2023/09/18 11:29:10;;;;;;;5.90;5.38;;;22.60;99.90;;;;;;5035875;28;20226;-71
2023/09/18 11:31:45;;;;;;;6.05;5.45;;;22.70;99.90;;;;;;5019927;28;20504;-71
2023/09/18 11:34:14;;;;;;;6.05;5.45;;;22.70;99.90;;;;;;5034600;28;20772;-71
2023/09/18 11:36:42;;;;;;;5.53;5.13;;;22.80;99.90;;;;;;5037831;28;20947;-71
2023/09/18 11:39:11;;;;;;;5.57;5.10;;;22.70;99.90;;;;;;5036504;28;20227;-70
2023/09/18 11:41:40;;;;;;;5.68;5.18;;;22.70;99.90;;;;;;5033880;28;20203;-71
2023/09/18 11:44:32;;;;;;;5.60;5.07;;;22.80;99.90;;;;;;5036685;28;20215;-71
2023/09/18 11:47:00;;;;;;;8.35;7.15;;;23.10;99.90;;;;;;5032006;28;20288;-71
2023/09/18 11:49:28;;;;;;;7.10;6.40;;;23.20;99.90;;;;;;5032230;28;20219;-71
2023/09/18 11:51:58;;;;;;;7.93;7.22;;;23.10;99.90;;;;;;5033952;28;20299;-70
2023/09/18 11:54:26;;;;;;;9.23;8.18;;;23.00;99.90;;;;;;5038068;28;20200;-70
2023/09/18 11:56:54;;;;;;;8.10;7.40;;;22.70;99.90;;;;;;5035753;28;20340;-70
2023/09/18 11:59:36;;;;;;;10.48;7.60;;;22.50;99.90;;;;;;5033894;28;20238;-70
2023/09/18 12:02:05;;;;;;;8.00;7.20;;;22.20;99.90;;;;;;5033968;28;20207;-70
2023/09/18 12:04:33;;;;;;;8.80;7.88;;;22.20;99.90;;;;;;5035766;28;20250;-70
2023/09/18 12:07:02;;;;;;;6.65;6.05;;;22.10;99.90;;;;;;5048017;28;20223;-72
2023/09/18 12:09:30;;;;;;;6.20;5.63;;;22.00;99.90;;;;;;5042374;28;20203;-70
2023/09/18 12:12:03;;;;;;;6.50;5.90;;;22.10;99.90;;;;;;5017742;28;20784;-72
2023/09/18 12:14:32;;;;;;;6.70;6.10;;;22.30;99.90;;;;;;5032314;28;20742;-70
2023/09/18 12:17:01;;;;;;;6.65;6.03;;;22.50;99.90;;;;;;5033950;28;20219;-70
2023/09/18 12:19:28;;;;;;;11.15;9.30;;;22.60;99.90;;;;;;5033810;28;20209;-70
2023/09/18 12:21:55;;;;;;;8.38;7.53;;;22.60;99.90;;;;;;5012847;28;20861;-72
2023/09/18 12:24:23;;;;;;;12.95;10.75;;;22.70;99.90;;;;;;5020250;28;20249;-71
2023/09/18 12:26:51;;;;;;;13.25;9.23;;;22.80;99.90;;;;;;5037575;28;20829;-73
2023/09/18 12:29:20;;;;;;;9.82;8.88;;;22.70;99.90;;;;;;5032437;28;20243;-72
2023/09/18 12:31:50;;;;;;;15.02;11.02;;;22.70;99.90;;;;;;5034277;28;20195;-71
2023/09/18 12:34:18;;;;;;;8.25;7.50;;;22.60;99.90;;;;;;5036771;28;20278;-71
2023/09/18 12:36:47;;;;;;;9.77;8.25;;;22.50;99.90;;;;;;5031654;28;20215;-72
2023/09/18 12:39:15;;;;;;;9.45;7.97;;;22.50;99.90;;;;;;5036549;28;21951;-72
2023/09/18 12:41:43;;;;;;;9.57;8.25;;;22.40;99.90;;;;;;5034708;28;20207;-72
2023/09/18 12:44:11;;;;;;;9.20;7.53;;;22.30;99.90;;;;;;5034695;28;20218;-72
2023/09/18 12:46:42;;;;;;;10.40;8.95;;;22.10;99.90;;;;;;5032977;28;20215;-71
2023/09/18 12:49:19;;;;;;;10.07;8.68;;;22.00;99.90;;;;;;5018772;28;20211;-72
2023/09/18 12:51:56;;;;;;;12.38;11.18;;;21.90;99.90;;;;;;5018641;28;20737;-72
2023/09/18 12:54:37;;;;;;;9.48;8.50;;;21.90;99.90;;;;;;5034351;28;20201;-72
2023/09/18 12:57:06;;;;;;;9.68;8.77;;;22.20;99.90;;;;;;5033483;28;20755;-73
2023/09/18 12:59:35;;;;;;;9.63;8.60;;;22.30;99.90;;;;;;5034854;28;20784;-73
2023/09/18 13:02:04;;;;;;;10.60;9.57;;;22.30;99.90;;;;;;5037842;28;20207;-76
2023/09/18 13:04:36;;;;;;;12.93;11.65;;;22.20;99.90;;;;;;5036566;28;20286;-76
2023/09/18 13:07:12;;;;;;;11.68;10.48;;;21.90;99.90;;;;;;5031642;28;20223;-75